sensor_id;sensor_type;location;lat;lon;timestamp;temperature;humidity
15959;DHT22;8078;47.822;9.402;2022-11-20T00:01:46;2.80;99.90
15959;DHT22;8078;47.822;9.402;2022-11-20T00:04:12;2.80;99.90
15959;DHT22;8078;47.822;9.402;2022-11-20T00:06:37;2.80;99.90
15959;DHT22;8078;47.822;9.402;2022-11-20T00:09:03;2.80;99.90
15959;DHT22;8078;47.822;9.402;2022-11-20T00:11:31;2.80;99.90
15959;DHT22;8078;47.822;9.402;2022-11-20T00:13:59;2.80;99.90
15959;DHT22;8078;47.822;9.402;2022-11-20T00:16:26;2.80;99.90
15959;DHT22;8078;47.822;9.402;2022-11-20T00:18:53;2.80;99.90
15959;DHT22;8078;47.822;9.402;2022-11-20T00:21:24;2.70;99.90
15959;DHT22;8078;47.822;9.402;2022-11-20T00:23:52;2.70;99.90
15959;DHT22;8078;47.822;9.402;2022-11-20T00:26:19;2.70;99.90
15959;DHT22;8078;47.822;9.402;2022-11-20T00:28:51;2.70;99.90
15959;DHT22;8078;47.822;9.402;2022-11-20T00:31:17;2.80;99.90
15959;DHT22;8078;47.822;9.402;2022-11-20T00:33:44;2.80;99.90
15959;DHT22;8078;47.822;9.402;2022-11-20T00:36:13;2.70;99.90
15959;DHT22;8078;47.822;9.402;2022-11-20T00:38:39;2.70;99.90
15959;DHT22;8078;47.822;9.402;2022-11-20T00:41:07;2.70;99.90
15959;DHT22;8078;47.822;9.402;2022-11-20T00:43:33;2.70;99.90
15959;DHT22;8078;47.822;9.402;2022-11-20T00:46:00;2.70;99.90
15959;DHT22;8078;47.822;9.402;2022-11-20T00:48:26;2.70;99.90
15959;DHT22;8078;47.822;9.402;2022-11-20T00:50:53;2.70;99.90
15959;DHT22;8078;47.822;9.402;2022-11-20T00:53:18;2.70;99.90
15959;DHT22;8078;47.822;9.402;2022-11-20T00:55:53;2.70;99.90
15959;DHT22;8078;47.822;9.402;2022-11-20T00:58:19;2.70;99.90
15959;DHT22;8078;47.822;9.402;2022-11-20T01:00:44;2.70;99.90
15959;DHT22;8078;47.822;9.402;2022-11-20T01:03:10;2.70;99.90
15959;DHT22;8078;47.822;9.402;2022-11-20T01:05:35;2.70;99.90
15959;DHT22;8078;47.822;9.402;2022-11-20T01:08:01;2.70;99.90
15959;DHT22;8078;47.822;9.402;2022-11-20T01:10:27;2.70;99.90
15959;DHT22;8078;47.822;9.402;2022-11-20T01:12:52;2.70;99.90
15959;DHT22;8078;47.822;9.402;2022-11-20T01:15:38;2.60;99.90
15959;DHT22;8078;47.822;9.402;2022-11-20T01:18:03;2.60;99.90
15959;DHT22;8078;47.822;9.402;2022-11-20T01:20:29;2.60;99.90
15959;DHT22;8078;47.822;9.402;2022-11-20T01:22:54;2.60;99.90
15959;DHT22;8078;47.822;9.402;2022-11-20T01:25:20;2.60;99.90
15959;DHT22;8078;47.822;9.402;2022-11-20T01:27:45;2.60;99.90
15959;DHT22;8078;47.822;9.402;2022-11-20T01:30:11;2.70;99.90
15959;DHT22;8078;47.822;9.402;2022-11-20T01:32:37;2.70;99.90
15959;DHT22;8078;47.822;9.402;2022-11-20T01:35:03;2.70;99.90
15959;DHT22;8078;47.822;9.402;2022-11-20T01:37:28;2.70;99.90
15959;DHT22;8078;47.822;9.402;2022-11-20T01:39:54;2.70;99.90
15959;DHT22;8078;47.822;9.402;2022-11-20T01:42:19;2.70;99.90
15959;DHT22;8078;47.822;9.402;2022-11-20T01:48:07;2.60;99.90
15959;DHT22;8078;47.822;9.402;2022-11-20T01:50:33;2.70;99.90
15959;DHT22;8078;47.822;9.402;2022-11-20T01:53:03;2.60;99.90
15959;DHT22;8078;47.822;9.402;2022-11-20T01:55:33;2.60;99.90
15959;DHT22;8078;47.822;9.402;2022-11-20T01:58:01;2.60;99.90
15959;DHT22;8078;47.822;9.402;2022-11-20T02:00:27;2.60;99.90
15959;DHT22;8078;47.822;9.402;2022-11-20T02:03:09;2.60;99.90
15959;DHT22;8078;47.822;9.402;2022-11-20T02:05:51;2.60;99.90
15959;DHT22;8078;47.822;9.402;2022-11-20T02:08:19;2.60;99.90
15959;DHT22;8078;47.822;9.402;2022-11-20T02:10:45;2.60;99.90
15959;DHT22;8078;47.822;9.402;2022-11-20T02:13:10;2.60;99.90
15959;DHT22;8078;47.822;9.402;2022-11-20T02:15:55;2.70;99.90
15959;DHT22;8078;47.822;9.402;2022-11-20T02:18:21;2.70;99.90
15959;DHT22;8078;47.822;9.402;2022-11-20T02:20:49;2.70;99.90
15959;DHT22;8078;47.822;9.402;2022-11-20T02:23:32;2.60;99.90
15959;DHT22;8078;47.822;9.402;2022-11-20T02:26:02;2.60;99.90
15959;DHT22;8078;47.822;9.402;2022-11-20T02:28:28;2.60;99.90
15959;DHT22;8078;47.822;9.402;2022-11-20T02:30:54;2.60;99.90
15959;DHT22;8078;47.822;9.402;2022-11-20T02:33:19;2.60;99.90
15959;DHT22;8078;47.822;9.402;2022-11-20T02:35:46;2.60;99.90
15959;DHT22;8078;47.822;9.402;2022-11-20T02:38:13;2.60;99.90
15959;DHT22;8078;47.822;9.402;2022-11-20T02:40:39;2.60;99.90
15959;DHT22;8078;47.822;9.402;2022-11-20T02:43:04;2.60;99.90
15959;DHT22;8078;47.822;9.402;2022-11-20T02:45:30;2.60;99.90
15959;DHT22;8078;47.822;9.402;2022-11-20T02:47:56;2.60;99.90
15959;DHT22;8078;47.822;9.402;2022-11-20T02:50:21;2.50;99.90
15959;DHT22;8078;47.822;9.402;2022-11-20T02:52:47;2.50;99.90
15959;DHT22;8078;47.822;9.402;2022-11-20T02:55:12;2.50;99.90
15959;DHT22;8078;47.822;9.402;2022-11-20T02:57:38;2.50;99.90
15959;DHT22;8078;47.822;9.402;2022-11-20T03:00:04;2.50;99.90
15959;DHT22;8078;47.822;9.402;2022-11-20T03:02:31;2.50;99.90
15959;DHT22;8078;47.822;9.402;2022-11-20T03:04:56;2.50;99.90
15959;DHT22;8078;47.822;9.402;2022-11-20T03:07:22;2.50;99.90
15959;DHT22;8078;47.822;9.402;2022-11-20T03:09:48;2.40;99.90
15959;DHT22;8078;47.822;9.402;2022-11-20T03:12:13;2.50;99.90
15959;DHT22;8078;47.822;9.402;2022-11-20T03:14:39;2.50;99.90
15959;DHT22;8078;47.822;9.402;2022-11-20T03:17:05;2.50;99.90
15959;DHT22;8078;47.822;9.402;2022-11-20T03:19:30;2.40;99.90
15959;DHT22;8078;47.822;9.402;2022-11-20T03:21:56;2.50;99.90
15959;DHT22;8078;47.822;9.402;2022-11-20T03:24:21;2.40;99.90
15959;DHT22;8078;47.822;9.402;2022-11-20T03:26:47;2.40;99.90
15959;DHT22;8078;47.822;9.402;2022-11-20T03:29:12;2.40;99.90
15959;DHT22;8078;47.822;9.402;2022-11-20T03:31:39;2.40;99.90
15959;DHT22;8078;47.822;9.402;2022-11-20T03:34:06;2.40;99.90
15959;DHT22;8078;47.822;9.402;2022-11-20T03:36:33;2.40;99.90
15959;DHT22;8078;47.822;9.402;2022-11-20T03:38:58;2.40;99.90
15959;DHT22;8078;47.822;9.402;2022-11-20T03:41:26;2.40;99.90
15959;DHT22;8078;47.822;9.402;2022-11-20T03:43:55;2.40;99.90
15959;DHT22;8078;47.822;9.402;2022-11-20T03:46:20;2.40;99.90
15959;DHT22;8078;47.822;9.402;2022-11-20T03:48:46;2.40;99.90
15959;DHT22;8078;47.822;9.402;2022-11-20T03:53:40;2.30;99.90
15959;DHT22;8078;47.822;9.402;2022-11-20T03:56:06;2.30;99.90
15959;DHT22;8078;47.822;9.402;2022-11-20T03:58:33;2.30;99.90
15959;DHT22;8078;47.822;9.402;2022-11-20T04:01:04;2.30;99.90
15959;DHT22;8078;47.822;9.402;2022-11-20T04:03:30;2.40;99.90
15959;DHT22;8078;47.822;9.402;2022-11-20T04:06:02;2.40;99.90
15959;DHT22;8078;47.822;9.402;2022-11-20T04:08:28;2.30;99.90
15959;DHT22;8078;47.822;9.402;2022-11-20T04:10:54;2.30;99.90
15959;DHT22;8078;47.822;9.402;2022-11-20T04:13:19;2.30;99.90
15959;DHT22;8078;47.822;9.402;2022-11-20T04:15:45;2.30;99.90
15959;DHT22;8078;47.822;9.402;2022-11-20T04:18:10;2.30;99.90
15959;DHT22;8078;47.822;9.402;2022-11-20T04:20:36;2.30;99.90
15959;DHT22;8078;47.822;9.402;2022-11-20T04:23:01;2.30;99.90
15959;DHT22;8078;47.822;9.402;2022-11-20T04:25:27;2.30;99.90
15959;DHT22;8078;47.822;9.402;2022-11-20T04:27:52;2.30;99.90
15959;DHT22;8078;47.822;9.402;2022-11-20T04:30:18;2.30;99.90
15959;DHT22;8078;47.822;9.402;2022-11-20T04:32:43;2.20;99.90
15959;DHT22;8078;47.822;9.402;2022-11-20T04:35:09;2.20;99.90
15959;DHT22;8078;47.822;9.402;2022-11-20T04:37:34;2.20;99.90
15959;DHT22;8078;47.822;9.402;2022-11-20T04:40:00;2.20;99.90
15959;DHT22;8078;47.822;9.402;2022-11-20T04:42:25;2.20;99.90
15959;DHT22;8078;47.822;9.402;2022-11-20T04:44:54;2.20;99.90
15959;DHT22;8078;47.822;9.402;2022-11-20T04:47:20;2.20;99.90
15959;DHT22;8078;47.822;9.402;2022-11-20T04:49:46;2.20;99.90
15959;DHT22;8078;47.822;9.402;2022-11-20T04:52:12;2.20;99.90
15959;DHT22;8078;47.822;9.402;2022-11-20T04:54:37;2.20;99.90
15959;DHT22;8078;47.822;9.402;2022-11-20T04:57:03;2.20;99.90
15959;DHT22;8078;47.822;9.402;2022-11-20T04:59:29;2.20;99.90
15959;DHT22;8078;47.822;9.402;2022-11-20T05:01:54;2.20;99.90
15959;DHT22;8078;47.822;9.402;2022-11-20T05:04:20;2.20;99.90
15959;DHT22;8078;47.822;9.402;2022-11-20T05:06:45;2.20;99.90
15959;DHT22;8078;47.822;9.402;2022-11-20T05:09:12;2.20;99.90
15959;DHT22;8078;47.822;9.402;2022-11-20T05:11:37;2.20;99.90
15959;DHT22;8078;47.822;9.402;2022-11-20T05:14:03;2.20;99.90
15959;DHT22;8078;47.822;9.402;2022-11-20T05:16:28;2.20;99.90
15959;DHT22;8078;47.822;9.402;2022-11-20T05:18:54;2.10;99.90
15959;DHT22;8078;47.822;9.402;2022-11-20T05:21:20;2.10;99.90
15959;DHT22;8078;47.822;9.402;2022-11-20T05:23:46;2.10;99.90
15959;DHT22;8078;47.822;9.402;2022-11-20T05:26:22;2.10;99.90
15959;DHT22;8078;47.822;9.402;2022-11-20T05:28:48;2.10;99.90
15959;DHT22;8078;47.822;9.402;2022-11-20T05:31:20;2.10;99.90
15959;DHT22;8078;47.822;9.402;2022-11-20T05:33:46;2.10;99.90
15959;DHT22;8078;47.822;9.402;2022-11-20T05:36:13;2.10;99.90
15959;DHT22;8078;47.822;9.402;2022-11-20T05:38:39;2.10;99.90
15959;DHT22;8078;47.822;9.402;2022-11-20T05:43:38;2.10;99.90
15959;DHT22;8078;47.822;9.402;2022-11-20T05:46:04;2.20;99.90
15959;DHT22;8078;47.822;9.402;2022-11-20T05:48:31;2.10;99.90
15959;DHT22;8078;47.822;9.402;2022-11-20T05:50:58;2.20;99.90
15959;DHT22;8078;47.822;9.402;2022-11-20T05:53:24;2.20;99.90
15959;DHT22;8078;47.822;9.402;2022-11-20T05:56:05;2.20;99.90
15959;DHT22;8078;47.822;9.402;2022-11-20T05:58:32;2.20;99.90
15959;DHT22;8078;47.822;9.402;2022-11-20T06:01:20;2.20;99.90
15959;DHT22;8078;47.822;9.402;2022-11-20T06:03:46;2.20;99.90
15959;DHT22;8078;47.822;9.402;2022-11-20T06:06:14;2.20;99.90
15959;DHT22;8078;47.822;9.402;2022-11-20T06:08:39;2.20;99.90
15959;DHT22;8078;47.822;9.402;2022-11-20T06:11:07;2.20;99.90
15959;DHT22;8078;47.822;9.402;2022-11-20T06:13:33;2.20;99.90
15959;DHT22;8078;47.822;9.402;2022-11-20T06:15:58;2.20;99.90
15959;DHT22;8078;47.822;9.402;2022-11-20T06:18:26;2.20;99.90
15959;DHT22;8078;47.822;9.402;2022-11-20T06:21:00;2.20;99.90
15959;DHT22;8078;47.822;9.402;2022-11-20T06:23:25;2.20;99.90
15959;DHT22;8078;47.822;9.402;2022-11-20T06:25:52;2.20;99.90
15959;DHT22;8078;47.822;9.402;2022-11-20T06:28:18;2.30;99.90
15959;DHT22;8078;47.822;9.402;2022-11-20T06:30:46;2.30;99.90
15959;DHT22;8078;47.822;9.402;2022-11-20T06:33:12;2.30;99.90
15959;DHT22;8078;47.822;9.402;2022-11-20T06:35:37;2.30;99.90
15959;DHT22;8078;47.822;9.402;2022-11-20T06:38:03;2.30;99.90
15959;DHT22;8078;47.822;9.402;2022-11-20T06:40:28;2.40;99.90
15959;DHT22;8078;47.822;9.402;2022-11-20T06:42:54;2.30;99.90
15959;DHT22;8078;47.822;9.402;2022-11-20T06:45:20;2.30;99.90
15959;DHT22;8078;47.822;9.402;2022-11-20T06:47:46;2.30;99.90
15959;DHT22;8078;47.822;9.402;2022-11-20T06:50:12;2.30;99.90
15959;DHT22;8078;47.822;9.402;2022-11-20T06:52:38;2.30;99.90
15959;DHT22;8078;47.822;9.402;2022-11-20T06:55:04;2.40;99.90
15959;DHT22;8078;47.822;9.402;2022-11-20T06:57:29;2.30;99.90
15959;DHT22;8078;47.822;9.402;2022-11-20T06:59:55;2.40;99.90
15959;DHT22;8078;47.822;9.402;2022-11-20T07:02:20;2.30;99.90
15959;DHT22;8078;47.822;9.402;2022-11-20T07:04:46;2.30;99.90
15959;DHT22;8078;47.822;9.402;2022-11-20T07:07:11;2.40;99.90
15959;DHT22;8078;47.822;9.402;2022-11-20T07:09:37;2.40;99.90
15959;DHT22;8078;47.822;9.402;2022-11-20T07:12:02;2.40;99.90
15959;DHT22;8078;47.822;9.402;2022-11-20T07:14:28;2.40;99.90
15959;DHT22;8078;47.822;9.402;2022-11-20T07:16:54;2.40;99.90
15959;DHT22;8078;47.822;9.402;2022-11-20T07:19:19;2.40;99.90
15959;DHT22;8078;47.822;9.402;2022-11-20T07:21:45;2.40;99.90
15959;DHT22;8078;47.822;9.402;2022-11-20T07:24:10;2.40;99.90
15959;DHT22;8078;47.822;9.402;2022-11-20T07:26:36;2.50;99.90
15959;DHT22;8078;47.822;9.402;2022-11-20T07:29:01;2.40;99.90
15959;DHT22;8078;47.822;9.402;2022-11-20T07:31:27;2.50;99.90
15959;DHT22;8078;47.822;9.402;2022-11-20T07:33:52;2.50;99.90
15959;DHT22;8078;47.822;9.402;2022-11-20T07:36:18;2.50;99.90
15959;DHT22;8078;47.822;9.402;2022-11-20T07:38:44;2.50;99.90
15959;DHT22;8078;47.822;9.402;2022-11-20T07:41:09;2.50;99.90
15959;DHT22;8078;47.822;9.402;2022-11-20T07:43:35;2.50;99.90
15959;DHT22;8078;47.822;9.402;2022-11-20T07:46:00;2.50;99.90
15959;DHT22;8078;47.822;9.402;2022-11-20T07:48:26;2.50;99.90
15959;DHT22;8078;47.822;9.402;2022-11-20T07:50:55;2.50;99.90
15959;DHT22;8078;47.822;9.402;2022-11-20T07:53:21;2.50;99.90
15959;DHT22;8078;47.822;9.402;2022-11-20T07:55:47;2.50;99.90
15959;DHT22;8078;47.822;9.402;2022-11-20T07:58:13;2.60;99.90
15959;DHT22;8078;47.822;9.402;2022-11-20T08:00:39;2.60;99.90
15959;DHT22;8078;47.822;9.402;2022-11-20T08:03:05;2.60;99.90
15959;DHT22;8078;47.822;9.402;2022-11-20T08:05:31;2.50;99.90
15959;DHT22;8078;47.822;9.402;2022-11-20T08:07:57;2.60;99.90
15959;DHT22;8078;47.822;9.402;2022-11-20T08:10:22;2.50;99.90
15959;DHT22;8078;47.822;9.402;2022-11-20T08:12:49;2.50;99.90
15959;DHT22;8078;47.822;9.402;2022-11-20T08:15:35;2.50;99.90
15959;DHT22;8078;47.822;9.402;2022-11-20T08:18:09;2.50;99.90
15959;DHT22;8078;47.822;9.402;2022-11-20T08:20:36;2.50;99.90
15959;DHT22;8078;47.822;9.402;2022-11-20T08:23:04;2.60;99.90
15959;DHT22;8078;47.822;9.402;2022-11-20T08:25:31;2.60;99.90
15959;DHT22;8078;47.822;9.402;2022-11-20T08:27:58;2.70;99.90
15959;DHT22;8078;47.822;9.402;2022-11-20T08:30:24;2.80;99.90
15959;DHT22;8078;47.822;9.402;2022-11-20T08:32:49;2.80;99.90
15959;DHT22;8078;47.822;9.402;2022-11-20T08:35:15;2.70;99.90
15959;DHT22;8078;47.822;9.402;2022-11-20T08:37:41;2.70;99.90
15959;DHT22;8078;47.822;9.402;2022-11-20T08:40:09;2.70;99.90
15959;DHT22;8078;47.822;9.402;2022-11-20T08:42:35;2.70;99.90
15959;DHT22;8078;47.822;9.402;2022-11-20T08:45:00;2.70;99.90
15959;DHT22;8078;47.822;9.402;2022-11-20T08:47:26;2.70;99.90
15959;DHT22;8078;47.822;9.402;2022-11-20T08:49:51;2.80;99.90
15959;DHT22;8078;47.822;9.402;2022-11-20T08:52:17;2.80;99.90
15959;DHT22;8078;47.822;9.402;2022-11-20T08:54:43;2.80;99.90
15959;DHT22;8078;47.822;9.402;2022-11-20T08:57:08;2.80;99.90
15959;DHT22;8078;47.822;9.402;2022-11-20T08:59:34;2.80;99.90
15959;DHT22;8078;47.822;9.402;2022-11-20T09:01:59;2.80;99.90
15959;DHT22;8078;47.822;9.402;2022-11-20T09:04:25;2.90;99.90
15959;DHT22;8078;47.822;9.402;2022-11-20T09:06:50;2.90;99.90
15959;DHT22;8078;47.822;9.402;2022-11-20T09:09:17;3.00;99.90
15959;DHT22;8078;47.822;9.402;2022-11-20T09:11:43;3.00;99.90
15959;DHT22;8078;47.822;9.402;2022-11-20T09:14:09;3.10;99.90
15959;DHT22;8078;47.822;9.402;2022-11-20T09:16:34;3.10;99.90
15959;DHT22;8078;47.822;9.402;2022-11-20T09:19:00;3.10;99.90
15959;DHT22;8078;47.822;9.402;2022-11-20T09:21:26;3.10;99.90
15959;DHT22;8078;47.822;9.402;2022-11-20T09:23:51;3.10;99.90
15959;DHT22;8078;47.822;9.402;2022-11-20T09:26:17;3.20;99.90
15959;DHT22;8078;47.822;9.402;2022-11-20T09:28:42;3.20;99.90
15959;DHT22;8078;47.822;9.402;2022-11-20T09:31:09;3.30;99.90
15959;DHT22;8078;47.822;9.402;2022-11-20T09:33:39;3.30;99.90
15959;DHT22;8078;47.822;9.402;2022-11-20T09:36:05;3.20;99.90
15959;DHT22;8078;47.822;9.402;2022-11-20T09:38:30;3.30;99.90
15959;DHT22;8078;47.822;9.402;2022-11-20T09:41:06;3.30;99.90
15959;DHT22;8078;47.822;9.402;2022-11-20T09:48:44;3.50;99.90
15959;DHT22;8078;47.822;9.402;2022-11-20T09:51:42;3.50;99.90
15959;DHT22;8078;47.822;9.402;2022-11-20T09:54:19;3.50;99.90
15959;DHT22;8078;47.822;9.402;2022-11-20T09:56:53;3.60;99.90
15959;DHT22;8078;47.822;9.402;2022-11-20T09:59:35;3.50;99.90
15959;DHT22;8078;47.822;9.402;2022-11-20T10:05:09;3.50;99.90
15959;DHT22;8078;47.822;9.402;2022-11-20T10:10:33;3.60;99.90
15959;DHT22;8078;47.822;9.402;2022-11-20T10:13:07;3.70;99.90
15959;DHT22;8078;47.822;9.402;2022-11-20T10:15:43;3.70;99.90
15959;DHT22;8078;47.822;9.402;2022-11-20T10:27:00;3.80;99.90
15959;DHT22;8078;47.822;9.402;2022-11-20T10:29:34;3.80;99.90
15959;DHT22;8078;47.822;9.402;2022-11-20T10:32:07;3.80;99.90
15959;DHT22;8078;47.822;9.402;2022-11-20T10:37:12;3.70;99.90
15959;DHT22;8078;47.822;9.402;2022-11-20T10:42:41;3.60;99.90
15959;DHT22;8078;47.822;9.402;2022-11-20T10:45:40;3.70;99.90
15959;DHT22;8078;47.822;9.402;2022-11-20T10:48:20;3.80;99.90
15959;DHT22;8078;47.822;9.402;2022-11-20T10:50:56;3.80;99.90
15959;DHT22;8078;47.822;9.402;2022-11-20T11:01:58;3.80;99.90
15959;DHT22;8078;47.822;9.402;2022-11-20T11:04:33;3.70;99.90
15959;DHT22;8078;47.822;9.402;2022-11-20T11:07:22;3.70;99.90
15959;DHT22;8078;47.822;9.402;2022-11-20T11:09:54;3.70;99.90
15959;DHT22;8078;47.822;9.402;2022-11-20T11:12:25;3.70;99.90
15959;DHT22;8078;47.822;9.402;2022-11-20T11:14:56;3.60;99.90
15959;DHT22;8078;47.822;9.402;2022-11-20T11:17:24;3.70;99.90
15959;DHT22;8078;47.822;9.402;2022-11-20T11:22:44;3.70;99.90
15959;DHT22;8078;47.822;9.402;2022-11-20T11:25:26;3.70;99.90
15959;DHT22;8078;47.822;9.402;2022-11-20T11:27:53;3.70;99.90
15959;DHT22;8078;47.822;9.402;2022-11-20T11:30:20;3.70;99.90
15959;DHT22;8078;47.822;9.402;2022-11-20T11:32:47;3.70;99.90
15959;DHT22;8078;47.822;9.402;2022-11-20T11:35:27;3.70;99.90
15959;DHT22;8078;47.822;9.402;2022-11-20T11:38:10;3.70;99.90
15959;DHT22;8078;47.822;9.402;2022-11-20T11:40:39;3.70;99.90
15959;DHT22;8078;47.822;9.402;2022-11-20T11:43:15;3.70;99.90
15959;DHT22;8078;47.822;9.402;2022-11-20T11:46:02;3.70;99.90
15959;DHT22;8078;47.822;9.402;2022-11-20T11:48:29;3.60;99.90
15959;DHT22;8078;47.822;9.402;2022-11-20T11:50:55;3.60;99.90
15959;DHT22;8078;47.822;9.402;2022-11-20T11:53:23;3.60;99.90
15959;DHT22;8078;47.822;9.402;2022-11-20T11:56:04;3.60;99.90
15959;DHT22;8078;47.822;9.402;2022-11-20T11:58:52;3.60;99.90
15959;DHT22;8078;47.822;9.402;2022-11-20T12:04:17;3.60;99.90
15959;DHT22;8078;47.822;9.402;2022-11-20T12:06:48;3.60;99.90
15959;DHT22;8078;47.822;9.402;2022-11-20T12:09:18;3.60;99.90
15959;DHT22;8078;47.822;9.402;2022-11-20T12:12:01;3.60;99.90
15959;DHT22;8078;47.822;9.402;2022-11-20T12:17:01;3.70;99.90
15959;DHT22;8078;47.822;9.402;2022-11-20T12:19:30;3.70;99.90
15959;DHT22;8078;47.822;9.402;2022-11-20T12:27:14;3.70;99.90
15959;DHT22;8078;47.822;9.402;2022-11-20T12:29:54;3.70;99.90
15959;DHT22;8078;47.822;9.402;2022-11-20T12:38:48;3.60;99.90
15959;DHT22;8078;47.822;9.402;2022-11-20T12:44:36;3.70;99.90
15959;DHT22;8078;47.822;9.402;2022-11-20T12:50:39;3.70;99.90
15959;DHT22;8078;47.822;9.402;2022-11-20T12:53:31;3.70;99.90
15959;DHT22;8078;47.822;9.402;2022-11-20T13:01:51;3.70;99.90
15959;DHT22;8078;47.822;9.402;2022-11-20T13:07:09;3.80;99.90
15959;DHT22;8078;47.822;9.402;2022-11-20T13:09:48;3.80;99.90
15959;DHT22;8078;47.822;9.402;2022-11-20T13:12:34;3.90;99.90
15959;DHT22;8078;47.822;9.402;2022-11-20T13:18:01;4.00;99.90
15959;DHT22;8078;47.822;9.402;2022-11-20T13:20:29;4.10;99.90
15959;DHT22;8078;47.822;9.402;2022-11-20T13:22:56;4.20;99.90
15959;DHT22;8078;47.822;9.402;2022-11-20T13:25:33;4.40;99.90
15959;DHT22;8078;47.822;9.402;2022-11-20T13:28:02;4.40;99.90
15959;DHT22;8078;47.822;9.402;2022-11-20T13:30:30;4.40;99.90
15959;DHT22;8078;47.822;9.402;2022-11-20T13:33:07;4.40;99.90
15959;DHT22;8078;47.822;9.402;2022-11-20T13:35:35;4.30;99.90
15959;DHT22;8078;47.822;9.402;2022-11-20T13:38:14;4.30;99.90
15959;DHT22;8078;47.822;9.402;2022-11-20T13:43:33;4.30;99.90
15959;DHT22;8078;47.822;9.402;2022-11-20T13:46:02;4.30;99.90
15959;DHT22;8078;47.822;9.402;2022-11-20T13:48:31;4.20;99.90
15959;DHT22;8078;47.822;9.402;2022-11-20T14:02:02;4.20;99.90
15959;DHT22;8078;47.822;9.402;2022-11-20T14:04:34;4.20;99.90
15959;DHT22;8078;47.822;9.402;2022-11-20T14:07:01;4.20;99.90
15959;DHT22;8078;47.822;9.402;2022-11-20T14:09:32;4.20;99.90
15959;DHT22;8078;47.822;9.402;2022-11-20T14:11:58;4.20;99.90
15959;DHT22;8078;47.822;9.402;2022-11-20T14:14:26;4.20;99.90
15959;DHT22;8078;47.822;9.402;2022-11-20T14:16:53;4.20;99.90
15959;DHT22;8078;47.822;9.402;2022-11-20T14:19:28;4.20;99.90
15959;DHT22;8078;47.822;9.402;2022-11-20T14:24:39;5.00;99.90
15959;DHT22;8078;47.822;9.402;2022-11-20T14:27:04;5.10;99.90
15959;DHT22;8078;47.822;9.402;2022-11-20T14:29:37;5.10;99.90
15959;DHT22;8078;47.822;9.402;2022-11-20T14:32:04;4.90;99.90
15959;DHT22;8078;47.822;9.402;2022-11-20T14:34:32;4.50;99.90
15959;DHT22;8078;47.822;9.402;2022-11-20T14:37:04;4.30;99.90
15959;DHT22;8078;47.822;9.402;2022-11-20T14:39:36;4.20;99.90
15959;DHT22;8078;47.822;9.402;2022-11-20T14:42:03;4.10;99.90
15959;DHT22;8078;47.822;9.402;2022-11-20T14:44:39;4.10;99.90
15959;DHT22;8078;47.822;9.402;2022-11-20T14:47:04;4.30;99.90
15959;DHT22;8078;47.822;9.402;2022-11-20T14:49:31;4.50;99.90
15959;DHT22;8078;47.822;9.402;2022-11-20T14:52:09;4.80;99.90
15959;DHT22;8078;47.822;9.402;2022-11-20T14:54:44;4.90;99.90
15959;DHT22;8078;47.822;9.402;2022-11-20T14:57:21;4.50;99.90
15959;DHT22;8078;47.822;9.402;2022-11-20T14:59:47;4.30;99.90
15959;DHT22;8078;47.822;9.402;2022-11-20T15:02:13;4.10;99.90
15959;DHT22;8078;47.822;9.402;2022-11-20T15:04:57;4.00;99.90
15959;DHT22;8078;47.822;9.402;2022-11-20T15:07:29;4.00;99.90
15959;DHT22;8078;47.822;9.402;2022-11-20T15:10:05;4.00;99.90
15959;DHT22;8078;47.822;9.402;2022-11-20T15:12:32;4.00;99.90
15959;DHT22;8078;47.822;9.402;2022-11-20T15:15:00;4.10;99.90
15959;DHT22;8078;47.822;9.402;2022-11-20T15:17:26;4.10;99.90
15959;DHT22;8078;47.822;9.402;2022-11-20T15:19:52;4.10;99.90
15959;DHT22;8078;47.822;9.402;2022-11-20T15:22:18;4.10;99.90
15959;DHT22;8078;47.822;9.402;2022-11-20T15:24:44;4.10;99.90
15959;DHT22;8078;47.822;9.402;2022-11-20T15:27:10;4.00;99.90
15959;DHT22;8078;47.822;9.402;2022-11-20T15:29:36;4.00;99.90
15959;DHT22;8078;47.822;9.402;2022-11-20T15:32:02;3.90;99.90
15959;DHT22;8078;47.822;9.402;2022-11-20T15:34:28;3.80;99.90
15959;DHT22;8078;47.822;9.402;2022-11-20T15:36:53;3.80;99.90
15959;DHT22;8078;47.822;9.402;2022-11-20T15:39:20;3.80;99.90
15959;DHT22;8078;47.822;9.402;2022-11-20T15:41:46;3.80;99.90
15959;DHT22;8078;47.822;9.402;2022-11-20T15:44:12;3.70;99.90
15959;DHT22;8078;47.822;9.402;2022-11-20T15:46:40;3.70;99.90
15959;DHT22;8078;47.822;9.402;2022-11-20T15:49:13;3.60;99.90
15959;DHT22;8078;47.822;9.402;2022-11-20T15:51:44;3.60;99.90
15959;DHT22;8078;47.822;9.402;2022-11-20T15:54:13;3.60;99.90
15959;DHT22;8078;47.822;9.402;2022-11-20T15:56:39;3.60;99.90
15959;DHT22;8078;47.822;9.402;2022-11-20T15:59:04;3.60;99.90
15959;DHT22;8078;47.822;9.402;2022-11-20T16:01:30;3.60;99.90
15959;DHT22;8078;47.822;9.402;2022-11-20T16:03:56;3.60;99.90
15959;DHT22;8078;47.822;9.402;2022-11-20T16:06:21;3.60;99.90
15959;DHT22;8078;47.822;9.402;2022-11-20T16:08:47;3.60;99.90
15959;DHT22;8078;47.822;9.402;2022-11-20T16:11:14;3.60;99.90
15959;DHT22;8078;47.822;9.402;2022-11-20T16:13:41;3.60;99.90
15959;DHT22;8078;47.822;9.402;2022-11-20T16:16:28;3.60;99.90
15959;DHT22;8078;47.822;9.402;2022-11-20T16:18:55;3.60;99.90
15959;DHT22;8078;47.822;9.402;2022-11-20T16:21:21;3.60;99.90
15959;DHT22;8078;47.822;9.402;2022-11-20T16:23:52;3.60;99.90
15959;DHT22;8078;47.822;9.402;2022-11-20T16:26:18;3.60;99.90
15959;DHT22;8078;47.822;9.402;2022-11-20T16:28:44;3.50;99.90
15959;DHT22;8078;47.822;9.402;2022-11-20T16:31:11;3.60;99.90
15959;DHT22;8078;47.822;9.402;2022-11-20T16:33:37;3.60;99.90
15959;DHT22;8078;47.822;9.402;2022-11-20T16:36:11;3.50;99.90
15959;DHT22;8078;47.822;9.402;2022-11-20T16:38:37;3.50;99.90
15959;DHT22;8078;47.822;9.402;2022-11-20T16:41:03;3.50;99.90
15959;DHT22;8078;47.822;9.402;2022-11-20T16:43:28;3.60;99.90
15959;DHT22;8078;47.822;9.402;2022-11-20T16:45:54;3.60;99.90
15959;DHT22;8078;47.822;9.402;2022-11-20T16:48:19;3.60;99.90
15959;DHT22;8078;47.822;9.402;2022-11-20T16:50:50;3.50;99.90
15959;DHT22;8078;47.822;9.402;2022-11-20T16:53:17;3.60;99.90
15959;DHT22;8078;47.822;9.402;2022-11-20T16:55:44;3.60;99.90
15959;DHT22;8078;47.822;9.402;2022-11-20T16:58:10;3.60;99.90
15959;DHT22;8078;47.822;9.402;2022-11-20T17:00:36;3.50;99.90
15959;DHT22;8078;47.822;9.402;2022-11-20T17:03:03;3.60;99.90
15959;DHT22;8078;47.822;9.402;2022-11-20T17:05:29;3.60;99.90
15959;DHT22;8078;47.822;9.402;2022-11-20T17:07:55;3.60;99.90
15959;DHT22;8078;47.822;9.402;2022-11-20T17:10:21;3.50;99.90
15959;DHT22;8078;47.822;9.402;2022-11-20T17:12:46;3.50;99.90
15959;DHT22;8078;47.822;9.402;2022-11-20T17:15:12;3.50;99.90
15959;DHT22;8078;47.822;9.402;2022-11-20T17:17:37;3.40;99.90
15959;DHT22;8078;47.822;9.402;2022-11-20T17:20:03;3.40;99.90
15959;DHT22;8078;47.822;9.402;2022-11-20T17:22:30;3.40;99.90
15959;DHT22;8078;47.822;9.402;2022-11-20T17:24:55;3.40;99.90
15959;DHT22;8078;47.822;9.402;2022-11-20T17:27:21;3.40;99.90
15959;DHT22;8078;47.822;9.402;2022-11-20T17:29:46;3.30;99.90
15959;DHT22;8078;47.822;9.402;2022-11-20T17:32:12;3.20;99.90
15959;DHT22;8078;47.822;9.402;2022-11-20T17:34:37;3.20;99.90
15959;DHT22;8078;47.822;9.402;2022-11-20T17:37:03;3.20;99.90
15959;DHT22;8078;47.822;9.402;2022-11-20T17:39:28;3.20;99.90
15959;DHT22;8078;47.822;9.402;2022-11-20T17:41:54;3.20;99.90
15959;DHT22;8078;47.822;9.402;2022-11-20T17:44:38;3.20;99.90
15959;DHT22;8078;47.822;9.402;2022-11-20T17:47:06;3.20;99.90